• Join FlightAware (Why Join?)
  • Login
  • US Flag 
11:16AM EST


 

Airport Tracker/Info


-or-


 

Live Flight TrackerFlight Track Log ✈ CSN3253 ✈ 19-May-2013 ✈ ZGKL / KWL - ZSNJ / NKG

Flight Track Log - Related Links

Times and Time Zones

All times are in EDT time to prevent confusion due to time zone crossing. See the CSN3253 flight status page for this flight to view local times or setup timezone preferences in your user account.

Time Position Orientation Groundspeed Altitude Reporting Facility
EDT Latitude Longitude Course Direction KTS MPH feet Rate Location/Type
08:27PM 25.3098 110.1514 48° Northeast  Level Estimated
08:28PM 25.4014 110.2638 48° Northeast  Level Estimated
08:29PM 25.4928 110.3764 48° Northeast  Level Estimated
08:30PM 25.5843 110.4891 48° Northeast  Level Estimated
08:31PM 25.6756 110.6021 48° Northeast  Level Estimated
08:32PM 25.7668 110.7151 48° Northeast  Level Estimated
08:33PM 25.8580 110.8284 48° Northeast  Level Estimated
08:34PM 25.9490 110.9418 48° Northeast  Level Estimated
08:35PM 26.0400 111.0554 48° Northeast  Level Estimated
08:36PM 26.1309 111.1692 48° Northeast  Level Estimated
08:37PM 26.2217 111.2832 48° Northeast  Level Estimated
08:38PM 26.3124 111.3973 48° Northeast  Level Estimated
08:39PM 26.4030 111.5117 48° Northeast  Level Estimated
08:40PM 26.4935 111.6262 49° Northeast  Level Estimated
08:41PM 26.5839 111.7408 49° Northeast  Level Estimated
08:42PM 26.6743 111.8557 49° Northeast  Level Estimated
08:43PM 26.7645 111.9707 49° Northeast  Level Estimated
08:44PM 26.8547 112.0860 49° Northeast  Level Estimated
08:45PM 26.9447 112.2014 49° Northeast  Level Estimated
08:46PM 27.0347 112.3170 49° Northeast  Level Estimated
08:47PM 27.1246 112.4327 49° Northeast  Level Estimated
08:48PM 27.2143 112.5487 49° Northeast  Level Estimated
08:49PM 27.3040 112.6649 49° Northeast  Level Estimated
08:50PM 27.3936 112.7812 49° Northeast  Level Estimated
08:51PM 27.4831 112.8977 49° Northeast  Level Estimated
08:52PM 27.5725 113.0145 49° Northeast  Level Estimated
08:53PM 27.6618 113.1314 49° Northeast  Level Estimated
08:54PM 27.7510 113.2485 49° Northeast  Level Estimated
08:55PM 27.8401 113.3658 49° Northeast  Level Estimated
08:56PM 27.9291 113.4832 49° Northeast  Level Estimated
08:57PM 28.0180 113.6009 49° Northeast  Level Estimated
08:58PM 28.1068 113.7188 49° Northeast  Level Estimated
08:59PM 28.1955 113.8369 50° Northeast  Level Estimated
09:00PM 28.2840 113.9551 50° Northeast  Level Estimated
09:01PM 28.3725 114.0736 50° Northeast  Level Estimated
09:02PM 28.4609 114.1922 50° Northeast  Level Estimated
09:03PM 28.5492 114.3111 50° Northeast  Level Estimated
09:04PM 28.6374 114.4302 50° Northeast  Level Estimated
09:05PM 28.7255 114.5494 50° Northeast  Level Estimated
09:06PM 28.8134 114.6689 50° Northeast  Level Estimated
09:07PM 28.9013 114.7885 50° Northeast  Level Estimated
09:08PM 28.9891 114.9084 50° Northeast  Level Estimated
09:09PM 29.0767 115.0285 50° Northeast  Level Estimated
09:10PM 29.1643 115.1487 50° Northeast  Level Estimated
09:11PM 29.2517 115.2692 50° Northeast  Level Estimated
09:12PM 29.3391 115.3899 50° Northeast  Level Estimated
09:13PM 29.4263 115.5108 50° Northeast  Level Estimated
09:14PM 29.5134 115.6319 50° Northeast  Level Estimated
09:15PM 29.6004 115.7532 50° Northeast  Level Estimated
09:16PM 29.6873 115.8747 51° Northeast  Level Estimated
09:17PM 29.7740 115.9964 51° Northeast  Level Estimated
09:18PM 29.8607 116.1183 51° Northeast  Level Estimated
09:19PM 29.9473 116.2405 51° Northeast  Level Estimated
09:20PM 30.0337 116.3628 51° Northeast  Level Estimated
09:21PM 30.1201 116.4854 51° Northeast  Level Estimated
09:22PM 30.2063 116.6082 51° Northeast  Level Estimated
09:23PM 30.2924 116.7312 51° Northeast  Level Estimated
09:24PM 30.3784 116.8544 51° Northeast  Level Estimated
09:25PM 30.4642 116.9779 51° Northeast  Level Estimated
09:26PM 30.5500 117.1015 51° Northeast  Level Estimated
09:27PM 30.6356 117.2254 51° Northeast  Level Estimated
09:28PM 30.7212 117.3495 51° Northeast  Level Estimated
09:29PM 30.8066 117.4738 51° Northeast  Level Estimated
09:30PM 30.8918 117.5983 51° Northeast  Level Estimated
09:31PM 30.9770 117.7231 51° Northeast  Level Estimated
09:32PM 31.0621 117.8480 52° Northeast  Level Estimated
09:33PM 31.1470 117.9732 52° Northeast  Level Estimated
09:34PM 31.2318 118.0986 52° Northeast  Level Estimated
09:35PM 31.3165 118.2243 52° Northeast  Level Estimated
09:36PM 31.4010 118.3502 52° Northeast  Level Estimated
09:37PM 31.4855 118.4763 52° Northeast  Level Estimated
09:38PM 31.5698 118.6026 52° Northeast  Level Estimated
09:39PM 31.6540 118.7292 52° Northeast  Level Estimated
09:40PM 31.7380 118.8559 52° Northeast  Level Estimated
09:41PM 31.7421 118.8620 52° Northeast  Level Estimated
09:42PM 31.7421 118.8620 270° West  Level Estimated
09:43PM 31.7421 118.8620 270° West  Level Estimated
09:44PM 31.7421 118.8620 270° West  Level Estimated
09:45PM 31.7421 118.8620 270° West  Level Estimated
09:46PM 31.7421 118.8620 270° West  Level Estimated
09:47PM 31.7421 118.8620 270° West  Level Estimated
09:48PM 31.7421 118.8620 270° West  Level Estimated
09:49PM 31.7421 118.8620 270° West  Level Estimated
09:50PM 31.7421 118.8620 270° West  Level Estimated
09:51PM 31.7421 118.8620 270° West  Level Estimated
09:52PM 31.7421 118.8620 270° West  Level Estimated
09:53PM 31.7421 118.8620 270° West  Level Estimated
09:54PM 31.7421 118.8620 270° West  Level Estimated
09:55PM 31.7421 118.8620 270° West  Level Estimated
09:56PM 31.7421 118.8620 270° West  Level Estimated
09:57PM 31.7421 118.8620 270° West  Level Estimated